createdAt,value
2017-09-07T00:00:34.477Z,0
2017-09-07T00:01:47.013Z,0
2017-09-07T00:02:59.233Z,0
2017-09-07T00:04:11.459Z,0
2017-09-07T00:05:23.677Z,0
2017-09-07T00:06:36.206Z,0
2017-09-07T00:07:48.427Z,0
2017-09-07T00:09:00.361Z,0
2017-09-07T00:10:12.915Z,0
2017-09-07T00:11:25.460Z,0
2017-09-07T00:12:37.698Z,0
2017-09-07T00:13:50.207Z,0
2017-09-07T00:15:02.427Z,0
2017-09-07T00:16:14.349Z,0
2017-09-07T00:17:26.563Z,0
2017-09-07T00:18:39.090Z,0
2017-09-07T00:19:51.647Z,0
2017-09-07T00:21:04.168Z,0
2017-09-07T00:22:15.764Z,0
2017-09-07T00:23:28.316Z,0
2017-09-07T00:24:41.062Z,0
2017-09-07T00:25:52.986Z,0
2017-09-07T00:27:05.533Z,0
2017-09-07T00:28:18.102Z,0
2017-09-07T00:29:29.999Z,0
2017-09-07T00:30:41.934Z,0
2017-09-07T00:31:54.182Z,0
2017-09-07T00:33:06.710Z,0
2017-09-07T00:34:19.256Z,0
2017-09-07T00:35:31.801Z,0
2017-09-07T00:36:44.348Z,0
2017-09-07T00:37:56.907Z,0
2017-09-07T00:39:09.140Z,0
2017-09-07T00:40:21.687Z,0
2017-09-07T00:41:34.226Z,0
2017-09-07T00:42:46.139Z,0
2017-09-07T00:43:58.409Z,0
2017-09-07T00:45:10.647Z,0
2017-09-07T00:46:23.200Z,0
2017-09-07T00:47:35.450Z,0
2017-09-07T00:48:47.380Z,0
2017-09-07T00:49:59.925Z,0
2017-09-07T00:51:12.470Z,0
2017-09-07T00:52:24.707Z,0
2017-09-07T00:53:37.234Z,0
2017-09-07T00:54:49.771Z,0
2017-09-07T00:56:02.298Z,0
2017-09-07T00:57:14.525Z,0
2017-09-07T00:58:26.770Z,0
2017-09-07T00:59:39.339Z,0
2017-09-07T01:00:51.530Z,0
2017-09-07T01:02:03.147Z,0
2017-09-07T01:03:15.375Z,0
2017-09-07T01:04:27.620Z,0
2017-09-07T01:05:40.139Z,0
2017-09-07T01:06:52.664Z,0
2017-09-07T01:08:04.884Z,0
2017-09-07T01:09:17.105Z,0
2017-09-07T01:10:29.025Z,0
2017-09-07T01:11:40.967Z,0
2017-09-07T01:12:53.515Z,0
2017-09-07T01:14:05.734Z,0
2017-09-07T01:15:17.647Z,0
2017-09-07T01:16:29.578Z,0
2017-09-07T01:17:42.122Z,0
2017-09-07T01:18:54.661Z,0
2017-09-07T01:20:06.891Z,0
2017-09-07T01:21:19.429Z,0
2017-09-07T01:22:31.974Z,0
2017-09-07T01:23:44.503Z,0
2017-09-07T01:24:57.047Z,0
2017-09-07T01:26:09.589Z,0
2017-09-07T01:27:22.116Z,0
2017-09-07T01:28:34.332Z,0
2017-09-07T01:29:46.844Z,0
2017-09-07T01:30:59.349Z,0
2017-09-07T01:32:11.572Z,0
2017-09-07T01:33:23.818Z,0
2017-09-07T01:34:36.382Z,0
2017-09-07T01:35:48.935Z,0
2017-09-07T01:37:00.876Z,0
2017-09-07T01:38:13.417Z,0
2017-09-07T01:39:25.948Z,0
2017-09-07T01:40:38.166Z,0
2017-09-07T01:41:50.383Z,0
2017-09-07T01:43:02.932Z,0
2017-09-07T01:44:15.454Z,0
2017-09-07T01:45:27.965Z,0
2017-09-07T01:46:39.912Z,0
2017-09-07T01:47:51.539Z,0
2017-09-07T01:49:03.457Z,0
2017-09-07T01:50:15.679Z,0
2017-09-07T01:51:28.220Z,0
2017-09-07T01:52:40.436Z,0
2017-09-07T01:53:52.640Z,0
2017-09-07T01:55:05.139Z,0
2017-09-07T01:56:17.380Z,0
2017-09-07T01:57:29.601Z,0
2017-09-07T01:58:42.124Z,0
2017-09-07T01:59:54.043Z,0
2017-09-07T02:01:06.581Z,0
2017-09-07T02:02:19.077Z,0
2017-09-07T02:03:31.308Z,0
2017-09-07T02:04:43.528Z,0
2017-09-07T02:05:55.463Z,0
2017-09-07T02:07:07.370Z,0
2017-09-07T02:08:19.591Z,0
2017-09-07T02:09:32.137Z,0
2017-09-07T02:10:44.701Z,0
2017-09-07T02:11:56.625Z,0
2017-09-07T02:13:09.152Z,0
2017-09-07T02:14:21.369Z,0
2017-09-07T02:15:33.608Z,0
2017-09-07T02:16:46.153Z,0
2017-09-07T02:17:58.707Z,0
2017-09-07T02:19:10.946Z,0
2017-09-07T02:20:23.473Z,0
2017-09-07T02:21:36.018Z,0
2017-09-07T02:22:48.566Z,0
2017-09-07T02:24:00.757Z,0
2017-09-07T02:25:12.958Z,0
2017-09-07T02:26:25.218Z,0
2017-09-07T02:27:37.139Z,0
2017-09-07T02:28:49.081Z,0
2017-09-07T02:30:01.631Z,0
2017-09-07T02:31:13.848Z,0
2017-09-07T02:32:26.446Z,0
2017-09-07T02:33:38.675Z,0
2017-09-07T02:34:50.612Z,0
2017-09-07T02:36:02.831Z,0
2017-09-07T02:37:14.758Z,0
2017-09-07T02:38:27.299Z,0
2017-09-07T02:39:39.546Z,0
2017-09-07T02:40:51.791Z,0
2017-09-07T02:42:03.741Z,0
2017-09-07T02:43:15.962Z,0
2017-09-07T02:44:28.486Z,0
2017-09-07T02:45:40.707Z,0
2017-09-07T02:46:52.624Z,0
2017-09-07T02:48:05.162Z,0
2017-09-07T02:49:17.695Z,0
2017-09-07T02:50:29.952Z,0
2017-09-07T02:51:42.198Z,0
2017-09-07T02:52:54.755Z,0
2017-09-07T02:54:06.999Z,0
2017-09-07T02:55:19.223Z,0
2017-09-07T02:56:31.156Z,0
2017-09-07T02:57:43.684Z,0
2017-09-07T02:58:55.934Z,0
2017-09-07T03:00:08.155Z,0
2017-09-07T03:01:20.049Z,0
2017-09-07T03:02:32.571Z,0
2017-09-07T03:03:45.141Z,0
2017-09-07T03:04:57.362Z,0
2017-09-07T03:06:09.596Z,0
2017-09-07T03:07:22.404Z,0
2017-09-07T03:08:34.949Z,0
2017-09-07T03:09:47.468Z,0
2017-09-07T03:10:59.709Z,0
2017-09-07T03:12:11.625Z,0
2017-09-07T03:13:24.183Z,0
2017-09-07T03:14:36.723Z,0
2017-09-07T03:15:48.924Z,0
2017-09-07T03:17:01.145Z,0
2017-09-07T03:18:13.689Z,0
2017-09-07T03:19:26.230Z,0
2017-09-07T03:20:38.455Z,0
2017-09-07T03:21:50.689Z,0
2017-09-07T03:23:02.895Z,0
2017-09-07T03:24:15.410Z,0
2017-09-07T03:25:27.618Z,0
2017-09-07T03:26:39.859Z,0
2017-09-07T03:27:52.404Z,0
2017-09-07T03:29:04.946Z,0
2017-09-07T03:30:17.489Z,0
2017-09-07T03:31:29.758Z,0
2017-09-07T03:32:42.286Z,0
2017-09-07T03:33:54.829Z,0
2017-09-07T03:35:07.067Z,0
2017-09-07T03:36:18.995Z,0
2017-09-07T03:37:31.194Z,0
2017-09-07T03:38:43.435Z,0
2017-09-07T03:39:55.909Z,0
2017-09-07T03:41:08.453Z,0
2017-09-07T03:42:21.000Z,0
2017-09-07T03:43:33.526Z,0
2017-09-07T03:44:46.117Z,0
2017-09-07T03:45:58.012Z,0
2017-09-07T03:47:10.548Z,0
2017-09-07T03:48:22.469Z,0
2017-09-07T03:49:35.001Z,0
2017-09-07T03:50:47.241Z,0
2017-09-07T03:51:59.767Z,0
2017-09-07T03:53:11.679Z,0
2017-09-07T03:54:24.222Z,0
2017-09-07T03:55:36.746Z,0
2017-09-07T03:56:49.317Z,0
2017-09-07T03:58:01.244Z,0
2017-09-07T03:59:13.788Z,0
2017-09-07T04:00:25.711Z,0
2017-09-07T04:01:38.506Z,0
2017-09-07T04:02:50.730Z,0
2017-09-07T04:04:02.948Z,0
2017-09-07T04:05:15.482Z,0
2017-09-07T04:06:27.385Z,0
2017-09-07T04:07:39.613Z,0
2017-09-07T04:08:51.870Z,0
2017-09-07T04:10:03.798Z,0
2017-09-07T04:11:16.320Z,0
2017-09-07T04:12:28.256Z,0
2017-09-07T04:13:40.789Z,0
2017-09-07T04:14:53.336Z,0
2017-09-07T04:16:05.572Z,0
2017-09-07T04:17:17.506Z,0
2017-09-07T04:18:30.072Z,0
2017-09-07T04:19:42.313Z,0
2017-09-07T04:20:54.552Z,0
2017-09-07T04:22:06.756Z,0
2017-09-07T04:23:19.007Z,5
2017-09-07T04:24:31.242Z,5
2017-09-07T04:25:43.800Z,5
2017-09-07T04:26:56.355Z,5
2017-09-07T04:28:08.889Z,5
2017-09-07T04:29:21.443Z,5
2017-09-07T04:30:33.978Z,10
2017-09-07T04:31:46.249Z,10
2017-09-07T04:32:58.808Z,10
2017-09-07T04:34:11.356Z,10
2017-09-07T04:35:23.902Z,10
2017-09-07T04:36:36.181Z,15
2017-09-07T04:37:48.743Z,20
2017-09-07T04:39:01.273Z,15
2017-09-07T04:40:13.792Z,20
2017-09-07T04:41:26.351Z,20
2017-09-07T04:42:38.285Z,20
2017-09-07T04:43:50.222Z,25
2017-09-07T04:45:03.002Z,30
2017-09-07T04:46:15.221Z,25
2017-09-07T04:47:27.439Z,30
2017-09-07T04:48:39.634Z,30
2017-09-07T04:49:52.157Z,35
2017-09-07T04:51:04.081Z,40
2017-09-07T04:52:16.629Z,40
2017-09-07T04:53:29.186Z,45
2017-09-07T04:54:41.108Z,45
2017-09-07T04:55:53.656Z,45
2017-09-07T04:57:05.882Z,45
2017-09-07T04:58:18.424Z,45
2017-09-07T04:59:30.947Z,40
2017-09-07T05:00:43.489Z,35
2017-09-07T05:01:56.031Z,40
2017-09-07T05:03:08.252Z,50
2017-09-07T05:04:20.756Z,55
2017-09-07T05:05:33.301Z,45
2017-09-07T05:06:45.861Z,35
2017-09-07T05:07:58.095Z,40
2017-09-07T05:09:10.655Z,55
2017-09-07T05:10:22.882Z,65
2017-09-07T05:11:35.418Z,70
2017-09-07T05:12:47.946Z,75
2017-09-07T05:13:59.841Z,80
2017-09-07T05:15:12.082Z,80
2017-09-07T05:16:24.029Z,75
2017-09-07T05:17:36.596Z,85
2017-09-07T05:18:48.232Z,90
2017-09-07T05:20:00.463Z,80
2017-09-07T05:21:12.999Z,115
2017-09-07T05:22:25.216Z,75
2017-09-07T05:23:37.436Z,75
2017-09-07T05:24:49.352Z,70
2017-09-07T05:26:01.577Z,95
2017-09-07T05:27:13.822Z,105
2017-09-07T05:28:26.358Z,90
2017-09-07T05:29:38.590Z,65
2017-09-07T05:30:51.110Z,70
2017-09-07T05:32:03.357Z,70
2017-09-07T05:33:15.875Z,95
2017-09-07T05:34:28.402Z,140
2017-09-07T05:35:40.631Z,150
2017-09-07T05:36:52.563Z,155
2017-09-07T05:38:05.106Z,195
2017-09-07T05:39:17.604Z,170
2017-09-07T05:40:29.849Z,180
2017-09-07T05:41:42.083Z,170
2017-09-07T05:42:53.993Z,155
2017-09-07T05:44:06.225Z,135
2017-09-07T05:45:18.746Z,140
2017-09-07T05:46:30.999Z,155
2017-09-07T05:47:43.227Z,165
2017-09-07T05:48:55.770Z,175
2017-09-07T05:50:08.014Z,145
2017-09-07T05:51:20.236Z,160
2017-09-07T05:52:32.785Z,130
2017-09-07T05:53:45.329Z,165
2017-09-07T05:54:57.872Z,195
2017-09-07T05:56:10.093Z,145
2017-09-07T05:57:22.664Z,130
2017-09-07T05:58:35.208Z,105
2017-09-07T05:59:47.123Z,100
2017-09-07T06:00:59.648Z,85
2017-09-07T06:02:12.165Z,95
2017-09-07T06:03:24.706Z,80
2017-09-07T06:04:37.242Z,90
2017-09-07T06:05:49.480Z,70
2017-09-07T06:07:02.004Z,65
2017-09-07T06:08:14.566Z,65
2017-09-07T06:09:27.098Z,65
2017-09-07T06:10:39.642Z,75
2017-09-07T06:11:51.232Z,90
2017-09-07T06:13:03.471Z,100
2017-09-07T06:14:15.720Z,115
2017-09-07T06:15:27.952Z,180
2017-09-07T06:16:40.483Z,140
2017-09-07T06:17:52.416Z,225
2017-09-07T06:19:04.950Z,305
2017-09-07T06:20:16.856Z,350
2017-09-07T06:21:28.494Z,290
2017-09-07T06:22:40.986Z,205
2017-09-07T06:23:53.200Z,195
2017-09-07T06:25:05.438Z,190
2017-09-07T06:26:17.677Z,190
2017-09-07T06:27:29.583Z,195
2017-09-07T06:28:42.147Z,195
2017-09-07T06:29:54.351Z,185
2017-09-07T06:31:06.590Z,235
2017-09-07T06:32:19.116Z,200
2017-09-07T06:33:31.357Z,270
2017-09-07T06:34:43.577Z,275
2017-09-07T06:35:55.198Z,270
2017-09-07T06:37:06.808Z,230
2017-09-07T06:38:18.734Z,180
2017-09-07T06:39:30.962Z,225
2017-09-07T06:40:43.480Z,285
2017-09-07T06:41:55.728Z,260
2017-09-07T06:43:07.946Z,260
2017-09-07T06:44:20.717Z,220
2017-09-07T06:45:33.239Z,265
2017-09-07T06:46:45.802Z,265
2017-09-07T06:47:58.026Z,365
2017-09-07T06:49:10.549Z,335
2017-09-07T06:50:22.748Z,295
2017-09-07T06:51:34.965Z,325
2017-09-07T06:52:47.488Z,360
2017-09-07T06:53:59.731Z,235
2017-09-07T06:55:11.969Z,250
2017-09-07T06:56:24.500Z,250
2017-09-07T06:57:37.017Z,260
2017-09-07T06:58:49.255Z,265
2017-09-07T07:00:01.788Z,245
2017-09-07T07:01:14.025Z,220
2017-09-07T07:02:26.254Z,225
2017-09-07T07:03:38.795Z,205
2017-09-07T07:04:51.348Z,195
2017-09-07T07:06:03.889Z,220
2017-09-07T07:07:16.132Z,235
2017-09-07T07:08:28.674Z,185
2017-09-07T07:09:40.930Z,155
2017-09-07T07:10:52.849Z,220
2017-09-07T07:12:05.070Z,350
2017-09-07T07:13:17.286Z,280
2017-09-07T07:14:29.824Z,330
2017-09-07T07:15:41.728Z,415
2017-09-07T07:16:54.265Z,510
2017-09-07T07:18:06.215Z,550
2017-09-07T07:19:18.767Z,615
2017-09-07T07:20:30.989Z,600
2017-09-07T07:21:43.512Z,580
2017-09-07T07:22:55.447Z,465
2017-09-07T07:24:08.000Z,440
2017-09-07T07:25:20.260Z,355
2017-09-07T07:26:32.484Z,335
2017-09-07T07:27:44.727Z,365
2017-09-07T07:28:57.282Z,570
2017-09-07T07:30:09.801Z,420
2017-09-07T07:31:22.055Z,515
2017-09-07T07:32:34.270Z,735
2017-09-07T07:33:45.880Z,860
2017-09-07T07:34:58.411Z,615
2017-09-07T07:36:10.930Z,510
2017-09-07T07:37:23.450Z,760
2017-09-07T07:38:36.012Z,870
2017-09-07T07:39:48.272Z,950
2017-09-07T07:41:00.183Z,680
2017-09-07T07:42:12.153Z,515
2017-09-07T07:43:24.706Z,550
2017-09-07T07:44:36.340Z,555
2017-09-07T07:45:48.886Z,565
2017-09-07T07:47:01.118Z,565
2017-09-07T07:48:13.056Z,565
2017-09-07T07:49:25.004Z,520
2017-09-07T07:50:37.232Z,485
2017-09-07T07:51:49.778Z,465
2017-09-07T07:53:02.320Z,555
2017-09-07T07:54:14.881Z,695
2017-09-07T07:55:27.127Z,745
2017-09-07T07:56:39.360Z,680
2017-09-07T07:57:51.276Z,610
2017-09-07T07:59:03.818Z,605
2017-09-07T08:00:16.047Z,680
2017-09-07T08:01:28.291Z,685
2017-09-07T08:02:40.533Z,630
2017-09-07T08:03:52.776Z,515
2017-09-07T08:05:05.323Z,565
2017-09-07T08:06:17.576Z,600
2017-09-07T08:07:30.093Z,515
2017-09-07T08:08:42.016Z,440
2017-09-07T08:09:53.935Z,510
2017-09-07T08:11:06.499Z,490
2017-09-07T08:12:19.047Z,510
2017-09-07T08:13:31.272Z,500
2017-09-07T08:14:43.186Z,550
2017-09-07T08:15:55.715Z,540
2017-09-07T08:17:08.260Z,520
2017-09-07T08:18:20.796Z,615
2017-09-07T08:19:33.364Z,660
2017-09-07T08:20:45.610Z,605
2017-09-07T08:21:57.530Z,635
2017-09-07T08:23:09.780Z,670
2017-09-07T08:24:22.005Z,685
2017-09-07T08:25:33.937Z,655
2017-09-07T08:26:46.151Z,620
2017-09-07T08:27:58.069Z,470
2017-09-07T08:29:10.309Z,380
2017-09-07T08:30:22.554Z,475
2017-09-07T08:31:34.771Z,635
2017-09-07T08:32:47.327Z,570
2017-09-07T08:33:59.864Z,625
2017-09-07T08:35:12.108Z,710
2017-09-07T08:36:24.678Z,680
2017-09-07T08:37:37.464Z,605
2017-09-07T08:38:49.698Z,765
2017-09-07T08:40:01.944Z,675
2017-09-07T08:41:14.145Z,735
2017-09-07T08:42:26.040Z,705
2017-09-07T08:43:38.585Z,575
2017-09-07T08:44:50.484Z,590
2017-09-07T08:46:02.731Z,570
2017-09-07T08:47:14.649Z,685
2017-09-07T08:48:26.867Z,665
2017-09-07T08:49:39.391Z,660
2017-09-07T08:50:51.911Z,665
2017-09-07T08:52:04.429Z,560
2017-09-07T08:53:16.656Z,675
2017-09-07T08:54:28.875Z,835
2017-09-07T08:55:41.138Z,715
2017-09-07T08:56:52.739Z,420
2017-09-07T08:58:05.266Z,485
2017-09-07T08:59:17.203Z,565
2017-09-07T09:00:29.146Z,745
2017-09-07T09:01:41.372Z,555
2017-09-07T09:02:53.916Z,655
2017-09-07T09:04:06.132Z,585
2017-09-07T09:05:18.962Z,365
2017-09-07T09:06:31.503Z,430
2017-09-07T09:07:43.766Z,560
2017-09-07T09:08:55.999Z,510
2017-09-07T09:10:08.239Z,450
2017-09-07T09:11:20.467Z,420
2017-09-07T09:12:32.999Z,475
2017-09-07T09:13:45.552Z,685
2017-09-07T09:14:57.777Z,455
2017-09-07T09:16:09.693Z,430
2017-09-07T09:17:21.919Z,585
2017-09-07T09:18:34.137Z,580
2017-09-07T09:19:46.379Z,580
2017-09-07T09:20:58.321Z,435
2017-09-07T09:22:10.549Z,470
2017-09-07T09:23:22.770Z,605
2017-09-07T09:24:35.015Z,645
2017-09-07T09:25:47.558Z,615
2017-09-07T09:26:59.810Z,675
2017-09-07T09:28:12.391Z,570
2017-09-07T09:29:24.919Z,625
2017-09-07T09:30:37.491Z,665
2017-09-07T09:31:49.715Z,630
2017-09-07T09:33:02.263Z,655
2017-09-07T09:34:13.881Z,420
2017-09-07T09:35:25.794Z,445
2017-09-07T09:36:37.714Z,640
2017-09-07T09:37:49.940Z,665
2017-09-07T09:39:02.480Z,640
2017-09-07T09:40:14.426Z,580
2017-09-07T09:41:26.960Z,610
2017-09-07T09:42:39.223Z,560
2017-09-07T09:43:51.718Z,605
2017-09-07T09:45:04.307Z,965
2017-09-07T09:46:16.513Z,805
2017-09-07T09:47:29.056Z,625
2017-09-07T09:48:41.301Z,565
2017-09-07T09:49:53.222Z,300
2017-09-07T09:51:05.444Z,320
2017-09-07T09:52:17.969Z,520
2017-09-07T09:53:30.501Z,625
2017-09-07T09:54:42.729Z,510
2017-09-07T09:55:54.952Z,445
2017-09-07T09:57:06.869Z,370
2017-09-07T09:58:19.083Z,345
2017-09-07T09:59:31.566Z,335
2017-09-07T10:00:44.111Z,540
2017-09-07T10:01:56.333Z,610
2017-09-07T10:03:08.252Z,740
2017-09-07T10:04:20.515Z,965
2017-09-07T10:05:33.063Z,1030
2017-09-07T10:06:45.286Z,900
2017-09-07T10:07:57.811Z,790
2017-09-07T10:09:10.076Z,705
2017-09-07T10:10:22.601Z,625
2017-09-07T10:11:35.173Z,665
2017-09-07T10:12:47.720Z,425
2017-09-07T10:14:00.313Z,200
2017-09-07T10:15:12.522Z,100
2017-09-07T10:16:24.757Z,135
2017-09-07T10:17:37.001Z,175
2017-09-07T10:18:49.564Z,230
2017-09-07T10:20:02.113Z,280
2017-09-07T10:21:14.586Z,335
2017-09-07T10:22:27.147Z,265
2017-09-07T10:23:38.749Z,150
2017-09-07T10:24:50.675Z,175
2017-09-07T10:26:03.221Z,255
2017-09-07T10:27:15.457Z,245
2017-09-07T10:28:28.000Z,415
2017-09-07T10:29:40.506Z,595
2017-09-07T10:30:52.769Z,655
2017-09-07T10:32:04.691Z,695
2017-09-07T10:33:17.261Z,690
2017-09-07T10:34:29.211Z,735
2017-09-07T10:35:41.137Z,865
2017-09-07T10:36:53.677Z,970
2017-09-07T10:38:06.206Z,1230
2017-09-07T10:39:18.138Z,1990
2017-09-07T10:40:30.665Z,1640
2017-09-07T10:41:42.565Z,2540
2017-09-07T10:42:54.483Z,1570
2017-09-07T10:44:06.702Z,1170
2017-09-07T10:45:18.651Z,1240
2017-09-07T10:46:31.196Z,825
2017-09-07T10:47:43.418Z,535
2017-09-07T10:48:55.361Z,340
2017-09-07T10:50:07.281Z,210
2017-09-07T10:51:19.528Z,125
2017-09-07T10:52:32.051Z,150
2017-09-07T10:53:44.633Z,170
2017-09-07T10:54:56.879Z,170
2017-09-07T10:56:08.828Z,155
2017-09-07T10:57:20.770Z,145
2017-09-07T10:58:33.304Z,285
2017-09-07T10:59:45.865Z,700
2017-09-07T11:00:57.793Z,1265
2017-09-07T11:02:10.352Z,1425
2017-09-07T11:03:22.602Z,1140
2017-09-07T11:04:35.143Z,1055
2017-09-07T11:05:47.668Z,955
2017-09-07T11:06:59.300Z,850
2017-09-07T11:08:11.855Z,700
2017-09-07T11:09:24.384Z,575
2017-09-07T11:10:36.610Z,485
2017-09-07T11:11:49.155Z,460
2017-09-07T11:13:01.714Z,455
2017-09-07T11:14:14.263Z,475
2017-09-07T11:15:26.513Z,530
2017-09-07T11:16:38.132Z,570
2017-09-07T11:17:50.053Z,665
2017-09-07T11:19:02.582Z,595
2017-09-07T11:20:14.819Z,385
2017-09-07T11:21:27.357Z,325
2017-09-07T11:22:39.907Z,440
2017-09-07T11:23:52.135Z,580
2017-09-07T11:25:04.684Z,415
2017-09-07T11:26:16.923Z,260
2017-09-07T11:27:29.144Z,155
2017-09-07T11:28:41.668Z,110
2017-09-07T11:29:54.202Z,100
2017-09-07T11:31:06.759Z,85
2017-09-07T11:32:19.283Z,85
2017-09-07T11:33:31.501Z,100
2017-09-07T11:34:44.068Z,150
2017-09-07T11:35:55.680Z,285
2017-09-07T11:37:07.933Z,375
2017-09-07T11:38:20.446Z,435
2017-09-07T11:39:33.027Z,445
2017-09-07T11:40:45.274Z,420
2017-09-07T11:41:56.896Z,370
2017-09-07T11:43:09.469Z,375
2017-09-07T11:44:22.014Z,420
2017-09-07T11:45:34.557Z,440
2017-09-07T11:46:47.104Z,420
2017-09-07T11:47:59.337Z,420
2017-09-07T11:49:11.565Z,455
2017-09-07T11:50:23.806Z,455
2017-09-07T11:51:35.108Z,415
2017-09-07T11:52:47.633Z,360
2017-09-07T11:53:59.893Z,345
2017-09-07T11:55:12.436Z,445
2017-09-07T11:56:24.684Z,560
2017-09-07T11:57:36.631Z,665
2017-09-07T11:58:48.274Z,745
2017-09-07T11:59:59.880Z,680
2017-09-07T12:01:12.428Z,550
2017-09-07T12:02:24.645Z,415
2017-09-07T12:03:36.869Z,350
2017-09-07T12:04:49.662Z,340
2017-09-07T12:06:01.882Z,350
2017-09-07T12:07:13.818Z,410
2017-09-07T12:08:26.073Z,500
2017-09-07T12:09:38.634Z,515
2017-09-07T12:10:50.565Z,505
2017-09-07T12:12:02.841Z,500
2017-09-07T12:13:14.774Z,500
2017-09-07T12:14:27.024Z,510
2017-09-07T12:15:39.587Z,565
2017-09-07T12:16:51.819Z,645
2017-09-07T12:18:04.378Z,640
2017-09-07T12:19:16.950Z,550
2017-09-07T12:20:28.873Z,550
2017-09-07T12:21:41.119Z,530
2017-09-07T12:22:53.618Z,350
2017-09-07T12:24:05.842Z,270
2017-09-07T12:25:18.402Z,240
2017-09-07T12:26:30.631Z,280
2017-09-07T12:27:42.545Z,290
2017-09-07T12:28:54.793Z,475
2017-09-07T12:30:07.021Z,590
2017-09-07T12:31:19.562Z,460
2017-09-07T12:32:32.085Z,340
2017-09-07T12:33:43.699Z,240
2017-09-07T12:34:56.246Z,235
2017-09-07T12:36:08.471Z,275
2017-09-07T12:37:20.696Z,395
2017-09-07T12:38:32.892Z,535
2017-09-07T12:39:45.434Z,615
2017-09-07T12:40:57.976Z,700
2017-09-07T12:42:09.899Z,725
2017-09-07T12:43:22.124Z,700
2017-09-07T12:44:34.360Z,665
2017-09-07T12:45:46.906Z,670
2017-09-07T12:46:59.460Z,695
2017-09-07T12:48:11.748Z,690
2017-09-07T12:49:23.698Z,785
2017-09-07T12:50:36.252Z,850
2017-09-07T12:51:48.481Z,855
2017-09-07T12:53:00.110Z,800
2017-09-07T12:54:12.663Z,735
2017-09-07T12:55:25.229Z,635
2017-09-07T12:56:37.463Z,645
2017-09-07T12:57:49.697Z,645
2017-09-07T12:59:02.238Z,555
2017-09-07T13:00:14.436Z,505
2017-09-07T13:01:26.972Z,420
2017-09-07T13:02:39.199Z,320
2017-09-07T13:03:51.717Z,380
2017-09-07T13:05:04.243Z,400
2017-09-07T13:06:16.167Z,325
2017-09-07T13:07:28.715Z,240
2017-09-07T13:08:41.253Z,215
2017-09-07T13:09:53.155Z,230
2017-09-07T13:11:05.718Z,235
2017-09-07T13:12:18.240Z,285
2017-09-07T13:13:30.481Z,300
2017-09-07T13:14:42.732Z,305
2017-09-07T13:15:54.326Z,320
2017-09-07T13:17:06.554Z,295
2017-09-07T13:18:18.796Z,215
2017-09-07T13:19:31.332Z,230
2017-09-07T13:20:43.880Z,270
2017-09-07T13:21:55.804Z,220
2017-09-07T13:23:07.743Z,275
2017-09-07T13:24:19.975Z,260
2017-09-07T13:25:32.221Z,215
2017-09-07T13:26:44.466Z,200
2017-09-07T13:27:56.375Z,245
2017-09-07T13:29:08.596Z,280
2017-09-07T13:30:20.520Z,270
2017-09-07T13:31:32.470Z,285
2017-09-07T13:32:44.392Z,285
2017-09-07T13:33:56.654Z,285
2017-09-07T13:35:08.857Z,350
2017-09-07T13:36:20.798Z,355
2017-09-07T13:37:33.327Z,335
2017-09-07T13:38:45.273Z,360
2017-09-07T13:39:57.494Z,420
2017-09-07T13:41:10.067Z,445
2017-09-07T13:42:22.313Z,435
2017-09-07T13:43:34.902Z,440
2017-09-07T13:44:47.127Z,490
2017-09-07T13:45:59.042Z,515
2017-09-07T13:47:10.963Z,480
2017-09-07T13:48:23.491Z,460
2017-09-07T13:49:36.039Z,465
2017-09-07T13:50:48.622Z,505
2017-09-07T13:52:00.900Z,550
2017-09-07T13:53:13.143Z,530
2017-09-07T13:54:25.381Z,510
2017-09-07T13:55:37.926Z,505
2017-09-07T13:56:50.130Z,425
2017-09-07T13:58:02.672Z,560
2017-09-07T13:59:15.244Z,785
2017-09-07T14:00:27.496Z,770
2017-09-07T14:01:39.737Z,765
2017-09-07T14:02:51.374Z,780
2017-09-07T14:04:03.577Z,730
2017-09-07T14:05:15.526Z,735
2017-09-07T14:06:28.073Z,845
2017-09-07T14:07:39.995Z,880
2017-09-07T14:08:51.910Z,730
2017-09-07T14:10:03.505Z,665
2017-09-07T14:11:15.704Z,650
2017-09-07T14:12:28.278Z,635
2017-09-07T14:13:40.869Z,650
2017-09-07T14:14:52.538Z,605
2017-09-07T14:16:04.819Z,520
2017-09-07T14:17:17.389Z,480
2017-09-07T14:18:29.954Z,435
2017-09-07T14:19:42.494Z,375
2017-09-07T14:20:54.743Z,305
2017-09-07T14:22:06.061Z,285
2017-09-07T14:23:18.658Z,290
2017-09-07T14:24:31.230Z,270
2017-09-07T14:25:43.200Z,225
2017-09-07T14:26:55.463Z,210
2017-09-07T14:28:07.740Z,185
2017-09-07T14:29:19.991Z,140
2017-09-07T14:30:32.534Z,120
2017-09-07T14:31:45.055Z,115
2017-09-07T14:32:57.623Z,125
2017-09-07T14:34:10.203Z,140
2017-09-07T14:35:22.771Z,145
2017-09-07T14:36:35.069Z,160
2017-09-07T14:37:47.636Z,195
2017-09-07T14:39:00.227Z,225
2017-09-07T14:40:12.779Z,285
2017-09-07T14:41:25.274Z,345
2017-09-07T14:42:37.568Z,375
2017-09-07T14:43:50.083Z,390
2017-09-07T14:45:02.331Z,410
2017-09-07T14:46:14.237Z,410
2017-09-07T14:47:26.196Z,405
2017-09-07T14:48:38.717Z,400
2017-09-07T14:49:51.287Z,400
2017-09-07T14:51:03.533Z,415
2017-09-07T14:52:16.088Z,480
2017-09-07T14:53:28.649Z,530
2017-09-07T14:54:40.897Z,555
2017-09-07T14:55:53.444Z,585
2017-09-07T14:57:05.993Z,575
2017-09-07T14:58:18.564Z,470
2017-09-07T14:59:30.845Z,390
2017-09-07T15:00:42.781Z,365
2017-09-07T15:01:54.761Z,355
2017-09-07T15:03:07.057Z,310
2017-09-07T15:04:19.285Z,275
2017-09-07T15:05:31.862Z,255
2017-09-07T15:06:44.458Z,270
2017-09-07T15:07:57.029Z,305
2017-09-07T15:09:09.597Z,335
2017-09-07T15:10:21.545Z,345
2017-09-07T15:11:33.833Z,360
2017-09-07T15:12:46.087Z,365
2017-09-07T15:13:58.656Z,360
2017-09-07T15:15:10.270Z,330
2017-09-07T15:16:22.516Z,270
2017-09-07T15:17:35.071Z,245
2017-09-07T15:18:47.402Z,270
2017-09-07T15:19:59.379Z,310
2017-09-07T15:21:11.949Z,360
2017-09-07T15:22:24.198Z,375
2017-09-07T15:23:36.421Z,370
2017-09-07T15:24:48.668Z,365
2017-09-07T15:26:00.938Z,355
2017-09-07T15:27:13.511Z,345
2017-09-07T15:28:25.786Z,320
2017-09-07T15:29:38.343Z,305
2017-09-07T15:30:50.591Z,295
2017-09-07T15:32:02.514Z,305
2017-09-07T15:33:14.780Z,305
2017-09-07T15:34:27.050Z,310
2017-09-07T15:35:38.978Z,310
2017-09-07T15:36:51.546Z,315
2017-09-07T15:38:04.113Z,310
2017-09-07T15:39:16.392Z,285
2017-09-07T15:40:28.984Z,260
2017-09-07T15:41:41.532Z,205
2017-09-07T15:42:53.471Z,155
2017-09-07T15:44:05.734Z,125
2017-09-07T15:45:17.969Z,100
2017-09-07T15:46:30.278Z,85
2017-09-07T15:47:42.578Z,75
2017-09-07T15:48:54.855Z,75
2017-09-07T15:50:07.469Z,80
2017-09-07T15:51:19.716Z,90
2017-09-07T15:52:31.936Z,110
2017-09-07T15:53:44.507Z,130
2017-09-07T15:54:56.738Z,155
2017-09-07T15:56:09.002Z,155
2017-09-07T15:57:21.821Z,145
2017-09-07T15:58:34.423Z,145
2017-09-07T15:59:46.690Z,160
2017-09-07T16:00:59.286Z,150
2017-09-07T16:02:11.557Z,140
2017-09-07T16:03:23.828Z,130
2017-09-07T16:04:36.098Z,120
2017-09-07T16:05:48.372Z,110
2017-09-07T16:07:00.662Z,100
2017-09-07T16:08:12.962Z,100
2017-09-07T16:09:25.251Z,95
2017-09-07T16:10:37.195Z,100
2017-09-07T16:11:49.147Z,115
2017-09-07T16:13:01.057Z,130
2017-09-07T16:14:13.615Z,135
2017-09-07T16:15:26.262Z,135
2017-09-07T16:16:38.524Z,130
2017-09-07T16:17:51.079Z,125
2017-09-07T16:19:03.349Z,125
2017-09-07T16:20:15.313Z,120
2017-09-07T16:21:27.881Z,115
2017-09-07T16:22:39.476Z,115
2017-09-07T16:23:51.723Z,120
2017-09-07T16:25:04.254Z,130
2017-09-07T16:26:16.549Z,145
2017-09-07T16:27:28.804Z,160
2017-09-07T16:28:41.055Z,175
2017-09-07T16:29:53.302Z,170
2017-09-07T16:31:05.539Z,155
2017-09-07T16:32:18.093Z,150
2017-09-07T16:33:30.669Z,150
2017-09-07T16:34:43.009Z,150
2017-09-07T16:35:55.562Z,145
2017-09-07T16:37:08.127Z,145
2017-09-07T16:38:20.676Z,150
2017-09-07T16:39:33.250Z,150
2017-09-07T16:40:45.836Z,150
2017-09-07T16:41:58.090Z,140
2017-09-07T16:43:10.370Z,125
2017-09-07T16:44:22.929Z,100
2017-09-07T16:45:34.886Z,95
2017-09-07T16:46:47.167Z,90
2017-09-07T16:47:59.761Z,85
2017-09-07T16:49:12.314Z,80
2017-09-07T16:50:24.876Z,80
2017-09-07T16:51:37.447Z,80
2017-09-07T16:52:49.374Z,80
2017-09-07T16:54:01.350Z,80
2017-09-07T16:55:13.957Z,80
2017-09-07T16:56:26.206Z,80